Time;durP1;ratioP1;P1;durP2;ratioP2;P2;SDS_P1;SDS_P2;PMS_P1;PMS_P2;Temp;Humidity;BMP_temperature;BMP_pressure;BME280_temperature;BME280_humidity;BME280_pressure;Samples;Min_cycle;Max_cycle;Signal;HPM_P1;HPM_P2
2023/03/08 00:01:18;;;;;;;19.10;7.47;;;2.60;99.90;;;;;;5053509;28;20167;-46
2023/03/08 00:03:44;;;;;;;5.53;3.85;;;2.80;99.90;;;;;;5053897;28;20171;-43
2023/03/08 00:06:13;;;;;;;83.03;37.78;;;2.60;99.90;;;;;;5053414;28;20237;-45
2023/03/08 00:08:38;;;;;;;22.88;10.73;;;2.60;99.90;;;;;;5052980;28;20171;-41
2023/03/08 00:11:06;;;;;;;53.00;21.10;;;2.70;99.90;;;;;;5053251;28;20570;-42
2023/03/08 00:13:31;;;;;;;15.63;6.40;;;2.70;99.90;;;;;;5053300;28;20165;-42
2023/03/08 00:16:01;;;;;;;13.18;7.70;;;2.80;99.90;;;;;;5053061;28;20170;-42
2023/03/08 00:18:26;;;;;;;16.08;7.40;;;2.70;99.90;;;;;;5052910;28;20270;-42
2023/03/08 00:21:04;;;;;;;11.82;5.22;;;2.80;99.90;;;;;;5052659;28;20232;-43
2023/03/08 00:23:30;;;;;;;10.77;5.90;;;2.70;99.90;;;;;;5053040;28;20199;-42
2023/03/08 00:25:56;;;;;;;10.77;5.00;;;2.90;99.90;;;;;;5052885;28;20206;-43
2023/03/08 00:28:22;;;;;;;11.85;7.35;;;2.90;99.90;;;;;;5052738;28;20179;-43
2023/03/08 00:31:08;;;;;;;16.27;9.70;;;2.90;99.90;;;;;;5052758;28;20265;-43
2023/03/08 00:33:34;;;;;;;8.07;5.25;;;2.80;99.90;;;;;;5052666;28;20717;-44
2023/03/08 00:36:03;;;;;;;12.18;6.47;;;2.70;99.90;;;;;;5052827;28;20166;-43
2023/03/08 00:38:31;;;;;;;22.25;11.10;;;2.70;99.90;;;;;;5052570;28;20531;-43
2023/03/08 00:40:58;;;;;;;13.10;8.70;;;2.70;99.90;;;;;;5052456;28;20174;-43
2023/03/08 00:43:24;;;;;;;14.30;7.70;;;2.60;99.90;;;;;;5052863;28;20197;-43
2023/03/08 00:45:50;;;;;;;28.55;15.85;;;2.70;99.90;;;;;;5052533;28;20171;-42
2023/03/08 00:48:15;;;;;;;9.82;5.07;;;2.60;99.90;;;;;;5052106;28;20174;-43
2023/03/08 00:50:41;;;;;;;11.52;7.15;;;2.80;99.90;;;;;;5052945;28;20240;-42
2023/03/08 00:53:07;;;;;;;8.65;3.63;;;2.90;99.90;;;;;;5052397;28;20525;-44
2023/03/08 00:55:32;;;;;;;17.30;9.00;;;2.80;99.90;;;;;;5052402;28;20297;-42
2023/03/08 00:57:58;;;;;;;18.13;9.88;;;2.80;99.90;;;;;;5051242;28;20175;-42
2023/03/08 01:00:24;;;;;;;8.95;4.25;;;2.90;99.90;;;;;;5052157;28;20175;-43
2023/03/08 01:02:49;;;;;;;7.75;4.60;;;2.80;99.90;;;;;;5051918;28;20188;-43
2023/03/08 01:05:15;;;;;;;17.33;7.43;;;3.00;99.90;;;;;;5051708;28;20293;-42
2023/03/08 01:07:40;;;;;;;7.95;4.30;;;2.80;99.90;;;;;;5052384;28;20510;-43
2023/03/08 01:10:06;;;;;;;8.68;4.03;;;2.80;99.90;;;;;;5051923;28;20178;-42
2023/03/08 01:12:33;;;;;;;5.85;4.15;;;2.80;99.90;;;;;;5051755;28;20214;-43
2023/03/08 01:14:59;;;;;;;10.05;4.15;;;2.70;99.90;;;;;;5051949;28;20190;-43
2023/03/08 01:17:24;;;;;;;7.30;3.10;;;2.60;99.90;;;;;;5051837;28;20198;-43
2023/03/08 01:19:50;;;;;;;4.00;3.22;;;2.70;99.90;;;;;;5051652;28;20562;-42
2023/03/08 01:22:16;;;;;;;8.23;3.42;;;2.70;99.90;;;;;;5051777;28;20597;-42
2023/03/08 01:24:45;;;;;;;6.85;3.78;;;2.80;99.90;;;;;;5050761;28;20167;-42
2023/03/08 01:27:11;;;;;;;8.82;4.10;;;2.70;99.90;;;;;;5052137;28;20189;-42
2023/03/08 01:29:36;;;;;;;10.18;3.40;;;2.70;99.90;;;;;;5051630;28;20623;-43
2023/03/08 01:32:02;;;;;;;5.50;3.45;;;2.70;99.90;;;;;;5051223;28;20557;-43
2023/03/08 01:34:27;;;;;;;9.73;3.60;;;2.80;99.90;;;;;;5051567;28;20674;-43
2023/03/08 01:36:53;;;;;;;5.30;3.35;;;2.80;99.90;;;;;;5051725;28;20198;-43
2023/03/08 01:39:19;;;;;;;9.40;3.58;;;2.90;99.90;;;;;;5051529;28;20622;-42
2023/03/08 01:41:44;;;;;;;8.75;3.50;;;2.80;99.90;;;;;;5051586;28;20171;-43
2023/03/08 01:44:18;;;;;;;8.25;3.90;;;2.80;99.90;;;;;;5051748;28;20211;-43
2023/03/08 01:46:44;;;;;;;4.75;3.33;;;2.90;99.90;;;;;;5051486;28;20648;-43
2023/03/08 01:49:27;;;;;;;6.85;4.45;;;2.90;99.90;;;;;;5051239;28;20213;-42
2023/03/08 01:52:02;;;;;;;5.22;3.60;;;2.90;99.90;;;;;;5051453;28;20577;-43
2023/03/08 01:54:33;;;;;;;7.18;3.80;;;2.80;99.90;;;;;;5051567;28;20178;-43
2023/03/08 01:57:04;;;;;;;6.93;3.78;;;2.80;99.90;;;;;;5051296;28;20166;-43
2023/03/08 01:59:31;;;;;;;6.03;3.90;;;2.90;99.90;;;;;;5051078;28;20163;-43
2023/03/08 02:01:57;;;;;;;5.07;3.65;;;3.00;99.90;;;;;;5050968;28;20182;-42
2023/03/08 02:04:25;;;;;;;8.43;4.05;;;2.80;99.90;;;;;;5051426;28;20192;-43
2023/03/08 02:06:50;;;;;;;6.72;3.53;;;2.80;99.90;;;;;;5050934;28;20698;-42
2023/03/08 02:09:16;;;;;;;7.00;4.15;;;2.80;99.90;;;;;;5050957;28;20253;-42
2023/03/08 02:11:42;;;;;;;5.10;3.38;;;2.90;99.90;;;;;;5051408;28;20202;-43
2023/03/08 02:14:08;;;;;;;5.00;3.88;;;2.60;99.90;;;;;;5051468;28;20174;-42
2023/03/08 02:16:33;;;;;;;8.05;4.13;;;2.60;99.90;;;;;;5051419;28;20167;-42
2023/03/08 02:19:05;;;;;;;5.53;3.42;;;2.50;99.90;;;;;;5049493;28;20182;-45
2023/03/08 02:21:31;;;;;;;6.15;4.03;;;2.50;99.90;;;;;;5050997;28;20158;-42
2023/03/08 02:24:05;;;;;;;5.40;3.78;;;2.60;99.90;;;;;;5050933;28;20159;-42
2023/03/08 02:26:33;;;;;;;5.97;3.72;;;2.20;99.90;;;;;;5050811;28;20571;-43
2023/03/08 02:28:59;;;;;;;5.57;4.22;;;2.60;99.90;;;;;;5050736;28;20178;-42
2023/03/08 02:31:24;;;;;;;5.47;4.20;;;2.50;99.90;;;;;;5050454;28;20236;-42
2023/03/08 02:33:50;;;;;;;5.40;4.07;;;2.60;99.90;;;;;;5050901;28;20175;-43
2023/03/08 02:36:15;;;;;;;7.13;3.88;;;2.60;99.90;;;;;;5050789;28;20197;-42
2023/03/08 02:38:41;;;;;;;6.85;4.30;;;2.60;99.90;;;;;;5051111;28;20171;-42
2023/03/08 02:41:07;;;;;;;7.13;4.60;;;2.50;99.90;;;;;;5051049;28;20574;-43
2023/03/08 02:43:32;;;;;;;8.15;3.60;;;2.60;99.90;;;;;;5050695;28;20580;-42
2023/03/08 02:45:58;;;;;;;5.78;3.53;;;2.60;99.90;;;;;;5050679;28;20179;-43
2023/03/08 02:48:24;;;;;;;7.82;3.60;;;2.50;99.90;;;;;;5050655;28;20171;-42
2023/03/08 02:50:49;;;;;;;5.47;3.75;;;2.50;99.90;;;;;;5050580;28;20662;-43
2023/03/08 02:53:15;;;;;;;6.10;4.07;;;2.50;99.90;;;;;;5050835;28;20258;-43
2023/03/08 02:55:41;;;;;;;6.57;4.15;;;2.50;99.90;;;;;;5050917;28;20321;-43
2023/03/08 02:58:08;;;;;;;10.35;4.30;;;2.40;99.90;;;;;;5050701;28;20257;-42
2023/03/08 03:00:34;;;;;;;6.15;3.50;;;2.40;99.90;;;;;;5050570;28;20159;-42
2023/03/08 03:02:59;;;;;;;7.05;4.00;;;2.60;99.90;;;;;;5049380;28;20638;-42
2023/03/08 03:05:25;;;;;;;7.88;4.50;;;2.60;99.90;;;;;;5050482;28;20248;-44
2023/03/08 03:07:51;;;;;;;7.60;4.13;;;2.60;99.90;;;;;;5050206;28;20174;-42
2023/03/08 03:10:17;;;;;;;6.82;4.07;;;2.60;99.90;;;;;;5050400;28;20167;-42
2023/03/08 03:12:43;;;;;;;8.52;4.30;;;2.60;99.90;;;;;;5050835;28;20210;-45
2023/03/08 03:15:10;;;;;;;5.15;3.58;;;2.60;99.90;;;;;;5050889;28;20246;-42
2023/03/08 03:17:36;;;;;;;9.95;4.43;;;2.70;99.90;;;;;;5050354;28;20542;-42
2023/03/08 03:20:05;;;;;;;5.70;3.70;;;2.60;99.90;;;;;;5050441;28;20163;-42
2023/03/08 03:22:31;;;;;;;6.00;4.18;;;2.60;99.90;;;;;;5054213;28;20167;-43
2023/03/08 03:24:57;;;;;;;5.32;3.72;;;2.60;99.90;;;;;;5054118;28;20521;-42
2023/03/08 03:27:22;;;;;;;7.88;4.35;;;2.70;99.90;;;;;;5053733;28;20179;-42
2023/03/08 03:29:48;;;;;;;6.40;4.22;;;2.70;99.90;;;;;;5053611;28;20231;-44
2023/03/08 03:32:14;;;;;;;5.47;3.92;;;2.60;99.90;;;;;;5053905;28;20267;-42
2023/03/08 03:34:39;;;;;;;6.65;4.13;;;2.60;99.90;;;;;;5054200;28;20198;-42
2023/03/08 03:37:05;;;;;;;6.75;4.05;;;2.60;99.90;;;;;;5053703;28;20166;-42
2023/03/08 03:39:34;;;;;;;7.20;3.80;;;2.40;99.90;;;;;;5053860;28;20171;-44
2023/03/08 03:42:00;;;;;;;5.75;3.67;;;2.50;99.90;;;;;;5053773;28;20254;-42
2023/03/08 03:44:29;;;;;;;7.68;4.05;;;2.40;99.90;;;;;;5053701;28;20704;-42
2023/03/08 03:46:54;;;;;;;4.72;3.38;;;2.60;99.90;;;;;;5053347;28;20170;-45
2023/03/08 03:49:20;;;;;;;4.40;3.60;;;2.60;99.90;;;;;;5053480;28;20245;-42
2023/03/08 03:51:45;;;;;;;4.78;3.45;;;2.60;99.90;;;;;;5053470;28;20243;-43
2023/03/08 03:54:11;;;;;;;4.00;2.95;;;2.60;99.90;;;;;;5053623;28;20170;-43
2023/03/08 03:56:36;;;;;;;4.53;3.50;;;2.60;99.90;;;;;;5053364;28;20174;-47
2023/03/08 03:59:02;;;;;;;5.00;3.72;;;2.70;99.90;;;;;;5053385;28;20178;-49
2023/03/08 04:01:30;;;;;;;6.55;4.00;;;2.60;99.90;;;;;;5053233;28;20174;-42
2023/03/08 04:03:56;;;;;;;5.22;3.45;;;2.80;99.90;;;;;;5053344;28;20175;-42
2023/03/08 04:06:28;;;;;;;6.70;4.13;;;2.80;99.90;;;;;;5052871;28;20657;-48
2023/03/08 04:08:58;;;;;;;7.47;3.63;;;2.80;99.90;;;;;;5053117;28;20170;-46
2023/03/08 04:11:26;;;;;;;5.97;3.65;;;2.80;99.90;;;;;;5052872;28;20214;-42
2023/03/08 04:13:52;;;;;;;5.30;3.90;;;2.80;99.90;;;;;;5052994;28;20173;-44
2023/03/08 04:16:23;;;;;;;7.25;4.63;;;2.80;99.90;;;;;;5052468;28;20646;-47
2023/03/08 04:18:53;;;;;;;5.97;4.28;;;2.60;99.90;;;;;;5053007;28;20175;-50
2023/03/08 04:21:18;;;;;;;9.35;4.30;;;2.70;99.90;;;;;;5052759;28;20229;-48
2023/03/08 04:23:44;;;;;;;7.53;4.65;;;2.70;99.90;;;;;;5052868;28;20569;-50
2023/03/08 04:26:09;;;;;;;9.32;4.25;;;2.70;99.90;;;;;;5052751;28;20183;-49
2023/03/08 04:28:35;;;;;;;5.10;4.05;;;2.70;99.90;;;;;;5053151;28;20174;-50
2023/03/08 04:31:14;;;;;;;6.80;4.72;;;2.70;99.90;;;;;;5052428;28;20693;-50
2023/03/08 04:33:40;;;;;;;6.38;5.22;;;2.50;99.90;;;;;;5053238;28;20181;-43
2023/03/08 04:36:06;;;;;;;8.23;5.80;;;2.70;99.90;;;;;;5052734;28;20631;-43
2023/03/08 04:38:32;;;;;;;8.50;5.38;;;2.70;99.90;;;;;;5052605;28;20259;-46
2023/03/08 04:41:01;;;;;;;12.05;5.57;;;2.60;99.90;;;;;;5052449;28;20663;-42
2023/03/08 04:43:27;;;;;;;7.55;5.30;;;5.50;99.90;;;;;;5052546;28;20174;-43
2023/03/08 04:45:53;;;;;;;8.50;4.95;;;2.50;99.90;;;;;;5052280;28;20175;-43
2023/03/08 04:48:19;;;;;;;10.20;5.28;;;2.60;99.90;;;;;;5052190;28;20201;-45
2023/03/08 04:50:55;;;;;;;8.98;6.43;;;2.40;99.90;;;;;;5052602;28;20182;-45
2023/03/08 04:53:21;;;;;;;13.88;7.57;;;2.40;99.90;;;;;;5052295;28;20174;-42
2023/03/08 04:55:47;;;;;;;9.30;5.93;;;2.60;99.90;;;;;;5052234;28;20205;-43
2023/03/08 04:58:13;;;;;;;16.83;9.85;;;2.50;99.90;;;;;;5052319;28;20167;-42
2023/03/08 05:00:38;;;;;;;20.50;11.20;;;2.40;99.90;;;;;;5052551;28;20213;-44
2023/03/08 05:03:05;;;;;;;25.98;12.90;;;2.50;99.90;;;;;;5052104;28;20240;-44
2023/03/08 05:05:30;;;;;;;22.65;13.13;;;2.60;99.90;;;;;;5051662;28;20547;-44
2023/03/08 05:07:58;;;;;;;15.73;9.90;;;2.40;99.90;;;;;;5052117;28;20228;-43
2023/03/08 05:10:24;;;;;;;16.42;10.90;;;2.50;99.90;;;;;;5051823;28;20159;-43
2023/03/08 05:12:50;;;;;;;14.50;9.00;;;2.30;99.90;;;;;;5051896;28;20256;-45
2023/03/08 05:15:16;;;;;;;17.30;9.73;;;2.40;99.90;;;;;;5051782;28;20167;-43
2023/03/08 05:17:41;;;;;;;19.17;9.68;;;2.50;99.90;;;;;;5052192;28;20210;-43
2023/03/08 05:20:08;;;;;;;16.10;9.68;;;2.40;99.90;;;;;;5051729;28;20178;-42
2023/03/08 05:22:33;;;;;;;19.50;10.65;;;2.50;99.90;;;;;;5051693;28;20190;-44
2023/03/08 05:24:59;;;;;;;27.42;14.18;;;2.40;99.90;;;;;;5051585;28;20194;-45
2023/03/08 05:27:24;;;;;;;19.60;11.02;;;2.20;99.90;;;;;;5051809;28;20194;-42
2023/03/08 05:29:51;;;;;;;23.50;12.80;;;2.30;99.90;;;;;;5051327;28;20174;-42
2023/03/08 05:32:16;;;;;;;19.33;11.32;;;2.40;99.90;;;;;;5051524;28;20234;-42
2023/03/08 05:34:42;;;;;;;16.77;9.50;;;2.40;99.90;;;;;;5051934;28;20229;-42
2023/03/08 05:37:08;;;;;;;21.45;12.13;;;2.50;99.90;;;;;;5051899;28;20175;-43
2023/03/08 05:39:33;;;;;;;19.90;11.48;;;2.20;99.90;;;;;;5051372;28;20194;-45
2023/03/08 05:41:59;;;;;;;23.77;12.13;;;2.40;99.90;;;;;;5051175;28;20178;-42
2023/03/08 05:44:24;;;;;;;19.40;11.07;;;2.20;99.90;;;;;;5050561;28;20536;-44
2023/03/08 05:46:50;;;;;;;17.38;10.35;;;2.30;99.90;;;;;;5051410;28;20253;-42
2023/03/08 05:49:16;;;;;;;19.23;10.20;;;2.20;99.90;;;;;;5051411;28;20154;-43
2023/03/08 05:51:41;;;;;;;16.17;9.55;;;2.30;99.90;;;;;;5051700;28;20202;-42
2023/03/08 05:54:07;;;;;;;16.60;8.95;;;2.30;99.90;;;;;;5051703;28;20166;-43
2023/03/08 05:56:32;;;;;;;15.50;8.93;;;2.20;99.90;;;;;;5051714;28;20163;-42
2023/03/08 05:58:58;;;;;;;15.10;8.07;;;2.10;99.90;;;;;;5051664;28;20178;-42
2023/03/08 06:01:25;;;;;;;18.25;10.75;;;2.10;99.90;;;;;;5051364;28;20202;-45
2023/03/08 06:03:53;;;;;;;16.90;10.20;;;2.30;99.90;;;;;;5051645;28;20228;-42
2023/03/08 06:06:23;;;;;;;19.10;9.80;;;2.20;99.90;;;;;;5051341;28;20229;-44
2023/03/08 06:08:49;;;;;;;16.70;7.32;;;2.30;99.90;;;;;;5051539;28;20854;-43
2023/03/08 06:11:15;;;;;;;13.43;7.85;;;2.20;99.90;;;;;;5051487;28;20247;-49
2023/03/08 06:13:40;;;;;;;12.43;8.35;;;2.10;99.90;;;;;;5051845;28;20166;-42
2023/03/08 06:16:07;;;;;;;17.67;8.85;;;2.10;99.90;;;;;;5051561;28;20186;-43
2023/03/08 06:18:35;;;;;;;16.65;9.60;;;2.20;99.90;;;;;;5051419;28;20167;-42
2023/03/08 06:21:05;;;;;;;20.02;11.10;;;2.30;99.90;;;;;;5050891;28;20171;-43
2023/03/08 06:23:32;;;;;;;16.48;8.80;;;2.20;99.90;;;;;;5051009;28;20178;-43
2023/03/08 06:25:58;;;;;;;11.40;7.18;;;2.20;99.90;;;;;;5051282;28;20170;-43
2023/03/08 06:28:25;;;;;;;11.30;7.82;;;2.00;99.90;;;;;;5051274;28;20241;-43
2023/03/08 06:30:52;;;;;;;13.02;8.10;;;2.20;99.90;;;;;;5051190;28;20262;-43
2023/03/08 06:33:20;;;;;;;11.05;7.60;;;2.20;99.90;;;;;;5051491;28;20205;-43
2023/03/08 06:36:06;;;;;;;15.40;9.25;;;2.20;99.90;;;;;;5050074;28;20631;-42
2023/03/08 06:38:33;;;;;;;10.60;6.70;;;2.20;99.90;;;;;;5051101;28;20175;-43
2023/03/08 06:40:59;;;;;;;12.80;7.30;;;2.10;99.90;;;;;;5051070;28;20216;-43
2023/03/08 06:43:25;;;;;;;11.50;7.22;;;1.90;99.90;;;;;;5051140;28;20194;-43
2023/03/08 06:45:50;;;;;;;11.88;7.00;;;2.00;99.90;;;;;;5051049;28;20195;-46
2023/03/08 06:48:16;;;;;;;11.30;6.80;;;2.20;99.90;;;;;;5051059;28;20199;-43
2023/03/08 06:50:42;;;;;;;12.93;7.93;;;2.00;99.90;;;;;;5051133;28;20167;-43
2023/03/08 06:53:08;;;;;;;11.32;6.65;;;2.20;99.90;;;;;;5051182;28;20166;-44
2023/03/08 06:55:34;;;;;;;13.48;6.70;;;2.00;99.90;;;;;;5052097;28;20527;-44
2023/03/08 06:58:00;;;;;;;10.43;6.72;;;2.20;99.90;;;;;;5054919;28;20174;-45
2023/03/08 07:00:26;;;;;;;12.10;6.43;;;2.10;99.90;;;;;;5054853;28;20180;-42
2023/03/08 07:02:52;;;;;;;10.02;6.35;;;2.00;99.90;;;;;;5053514;28;20167;-43
2023/03/08 07:05:18;;;;;;;8.90;5.40;;;2.10;99.90;;;;;;5054846;28;20320;-43
2023/03/08 07:07:43;;;;;;;9.43;5.55;;;2.10;99.90;;;;;;5054842;28;20273;-50
2023/03/08 07:10:10;;;;;;;11.38;5.85;;;2.00;99.90;;;;;;5055030;28;20174;-48
2023/03/08 07:12:39;;;;;;;8.43;6.00;;;2.10;99.90;;;;;;5053869;28;20736;-50
2023/03/08 07:15:07;;;;;;;8.68;5.50;;;2.10;99.90;;;;;;5053860;28;20630;-49
2023/03/08 07:17:34;;;;;;;7.43;4.72;;;2.20;99.90;;;;;;5053738;28;20217;-51
2023/03/08 07:20:00;;;;;;;10.88;6.35;;;2.00;99.90;;;;;;5054342;28;20173;-48
2023/03/08 07:22:25;;;;;;;9.15;5.72;;;2.30;99.90;;;;;;5054000;28;20167;-47
2023/03/08 07:24:51;;;;;;;8.57;5.93;;;2.40;99.90;;;;;;5053677;28;20163;-46
2023/03/08 07:27:16;;;;;;;9.82;6.15;;;2.30;99.90;;;;;;5054056;28;20181;-49
2023/03/08 07:29:42;;;;;;;11.00;6.53;;;2.20;99.90;;;;;;5053792;28;20619;-44
2023/03/08 07:32:07;;;;;;;11.75;6.43;;;2.20;99.90;;;;;;5053928;28;20605;-44
2023/03/08 07:34:33;;;;;;;11.80;6.25;;;2.30;99.90;;;;;;5053925;28;20257;-43
2023/03/08 07:36:59;;;;;;;9.82;6.57;;;2.30;99.90;;;;;;5053879;28;20179;-43
2023/03/08 07:39:24;;;;;;;13.90;6.93;;;2.40;99.90;;;;;;5053645;28;20225;-45
2023/03/08 07:41:50;;;;;;;9.27;5.80;;;2.20;99.90;;;;;;5053399;28;20171;-44
2023/03/08 07:44:15;;;;;;;9.73;6.72;;;2.20;99.90;;;;;;5053304;28;20170;-44
2023/03/08 07:46:41;;;;;;;11.48;7.00;;;2.20;99.90;;;;;;5053571;28;20518;-43
2023/03/08 07:49:09;;;;;;;9.48;7.25;;;2.40;99.90;;;;;;5053483;28;20225;-44
2023/03/08 07:51:35;;;;;;;10.27;7.45;;;2.30;99.90;;;;;;5052835;28;20203;-44
2023/03/08 07:54:01;;;;;;;11.50;7.20;;;2.30;99.90;;;;;;5053217;28;20175;-46
2023/03/08 07:56:27;;;;;;;10.45;7.63;;;2.30;99.90;;;;;;5053249;28;20170;-43
2023/03/08 07:58:56;;;;;;;11.27;7.80;;;2.40;99.90;;;;;;5053406;28;20238;-45
2023/03/08 08:01:22;;;;;;;13.20;8.85;;;2.20;99.90;;;;;;5052787;28;20202;-45
2023/03/08 08:03:47;;;;;;;12.75;8.02;;;2.40;99.90;;;;;;5053341;28;20202;-46
2023/03/08 08:06:13;;;;;;;9.30;7.53;;;2.30;99.90;;;;;;5052540;28;20230;-44
2023/03/08 08:08:38;;;;;;;13.25;7.32;;;2.40;99.90;;;;;;5053584;28;20539;-45
2023/03/08 08:11:12;;;;;;;11.40;7.95;;;2.40;99.90;;;;;;5053150;28;20198;-45
2023/03/08 08:13:38;;;;;;;12.45;7.32;;;2.70;99.90;;;;;;5053327;28;20171;-45
2023/03/08 08:16:05;;;;;;;13.35;8.35;;;2.60;99.90;;;;;;5050994;28;20896;-44
2023/03/08 08:18:32;;;;;;;11.63;7.47;;;2.60;99.90;;;;;;5050055;28;20269;-44
2023/03/08 08:21:05;;;;;;;12.27;7.93;;;2.60;99.90;;;;;;5051307;28;20167;-43
2023/03/08 08:23:31;;;;;;;12.48;8.05;;;2.70;99.90;;;;;;5051616;28;20163;-48
2023/03/08 08:25:57;;;;;;;12.98;9.50;;;2.70;99.90;;;;;;5051257;28;20158;-43
2023/03/08 08:28:25;;;;;;;9.00;6.72;;;2.70;99.90;;;;;;5050816;28;20955;-42
2023/03/08 08:30:59;;;;;;;9.13;6.97;;;2.80;99.90;;;;;;5051065;28;20226;-43
2023/03/08 08:33:26;;;;;;;10.50;7.03;;;3.80;99.90;;;;;;5051190;28;20187;-43
2023/03/08 08:35:52;;;;;;;9.35;8.07;;;2.80;99.90;;;;;;5051221;28;20163;-43
2023/03/08 08:38:17;;;;;;;8.55;6.63;;;3.10;99.90;;;;;;5051107;28;20174;-43
2023/03/08 08:40:43;;;;;;;9.45;7.32;;;3.10;99.90;;;;;;5051104;28;20166;-43
2023/03/08 08:43:08;;;;;;;10.15;7.15;;;3.30;99.90;;;;;;5050786;28;20163;-43
2023/03/08 08:45:34;;;;;;;11.15;7.40;;;3.40;99.90;;;;;;5049877;28;20248;-42
2023/03/08 08:48:00;;;;;;;7.50;5.97;;;3.30;99.90;;;;;;5050920;28;20162;-42
2023/03/08 08:50:25;;;;;;;9.50;6.88;;;3.20;99.90;;;;;;5050973;28;20185;-49
2023/03/08 08:52:51;;;;;;;12.45;9.13;;;3.40;99.90;;;;;;5051076;28;20213;-43
2023/03/08 08:55:16;;;;;;;8.07;6.50;;;3.30;99.90;;;;;;5050706;28;20205;-43
2023/03/08 08:57:42;;;;;;;8.15;6.43;;;3.40;99.90;;;;;;5049707;28;20170;-43
2023/03/08 09:00:08;;;;;;;6.97;5.80;;;3.20;99.90;;;;;;5049623;28;20213;-43
2023/03/08 09:02:36;;;;;;;10.65;6.72;;;3.60;99.90;;;;;;5050450;28;20194;-50
2023/03/08 09:05:01;;;;;;;9.23;7.20;;;3.50;99.90;;;;;;5050371;28;20175;-48
2023/03/08 09:07:27;;;;;;;7.13;6.32;;;3.70;99.90;;;;;;5050707;28;20278;-52
2023/03/08 09:09:56;;;;;;;7.30;6.10;;;3.70;99.90;;;;;;5050469;28;20205;-43
2023/03/08 09:12:22;;;;;;;10.07;6.72;;;3.70;99.90;;;;;;5050460;28;20221;-44
2023/03/08 09:14:49;;;;;;;9.10;6.55;;;3.70;99.90;;;;;;5050712;28;20226;-43
2023/03/08 09:17:14;;;;;;;16.52;9.43;;;3.80;99.90;;;;;;5050138;28;20221;-48
2023/03/08 09:19:40;;;;;;;11.88;7.90;;;3.70;99.90;;;;;;5049634;28;20198;-51
2023/03/08 09:22:05;;;;;;;13.32;8.48;;;3.80;99.90;;;;;;5050375;28;20202;-43
2023/03/08 09:24:31;;;;;;;10.18;8.15;;;3.80;99.90;;;;;;5050363;28;20162;-46
2023/03/08 09:26:56;;;;;;;7.80;6.07;;;3.70;99.90;;;;;;5049813;28;20185;-45
2023/03/08 09:29:22;;;;;;;10.75;7.72;;;3.70;99.90;;;;;;5050442;28;20175;-44
2023/03/08 09:31:48;;;;;;;8.45;6.82;;;3.80;99.90;;;;;;5050204;28;20221;-43
2023/03/08 09:34:14;;;;;;;10.65;8.35;;;4.00;99.90;;;;;;5050305;28;20249;-43
2023/03/08 09:36:41;;;;;;;7.32;6.15;;;4.00;99.90;;;;;;5050494;28;20182;-46
2023/03/08 09:39:12;;;;;;;9.35;6.97;;;3.80;99.90;;;;;;5049716;28;20171;-45
2023/03/08 09:41:51;;;;;;;10.32;6.90;;;4.00;99.90;;;;;;5050743;28;20198;-45
2023/03/08 09:44:42;;;;;;;17.05;10.93;;;4.00;99.90;;;;;;5050171;28;20170;-43
2023/03/08 09:47:29;;;;;;;16.67;10.88;;;4.00;99.90;;;;;;5050126;28;20181;-47
2023/03/08 09:50:03;;;;;;;10.25;7.95;;;4.10;99.90;;;;;;5050071;28;20209;-52
2023/03/08 09:52:37;;;;;;;8.48;7.15;;;4.00;99.90;;;;;;5049737;28;20539;-49
2023/03/08 09:55:04;;;;;;;11.88;8.27;;;3.90;99.90;;;;;;5049798;28;20155;-51
2023/03/08 09:57:39;;;;;;;9.20;7.32;;;4.10;99.90;;;;;;5049687;28;20209;-48
2023/03/08 10:00:08;;;;;;;10.63;8.18;;;4.10;99.90;;;;;;5049879;28;20162;-49
2023/03/08 10:02:52;;;;;;;30.70;16.60;;;4.00;99.90;;;;;;5049529;28;20248;-51
2023/03/08 10:05:34;;;;;;;24.23;13.82;;;4.10;99.90;;;;;;5047481;28;20906;-47
2023/03/08 10:08:32;;;;;;;29.23;15.95;;;4.10;99.90;;;;;;5047941;28;20193;-50
2023/03/08 10:10:59;;;;;;;12.70;9.23;;;4.20;99.90;;;;;;5050019;28;20179;-43
2023/03/08 10:13:37;;;;;;;29.77;16.45;;;4.20;99.90;;;;;;5049823;28;20667;-47
2023/03/08 10:16:30;;;;;;;34.13;17.10;;;4.10;99.90;;;;;;5049709;28;20697;-50
2023/03/08 10:19:13;;;;;;;14.93;10.40;;;4.20;99.90;;;;;;5049872;28;20668;-45
2023/03/08 10:21:41;;;;;;;13.35;9.48;;;4.20;99.90;;;;;;5049954;28;20162;-45
2023/03/08 10:24:28;;;;;;;12.40;9.18;;;4.40;99.90;;;;;;5049773;28;20241;-47
2023/03/08 10:27:05;;;;;;;16.33;11.15;;;4.50;99.90;;;;;;5049285;28;20163;-51
2023/03/08 10:29:31;;;;;;;12.15;8.75;;;4.50;99.90;;;;;;5030681;28;20686;-49
2023/03/08 10:31:56;;;;;;;30.92;18.08;;;4.40;99.90;;;;;;5033636;28;20294;-45
2023/03/08 10:34:29;;;;;;;20.10;13.15;;;4.50;99.90;;;;;;5033590;28;20249;-46
2023/03/08 10:37:00;;;;;;;17.70;12.38;;;4.40;99.90;;;;;;5033600;28;20179;-54
2023/03/08 10:39:26;;;;;;;31.58;19.58;;;4.60;99.90;;;;;;5033518;28;20528;-45
2023/03/08 10:41:57;;;;;;;13.15;9.70;;;4.60;99.90;;;;;;5033851;28;20619;-46
2023/03/08 10:44:41;;;;;;;16.10;11.00;;;4.60;99.90;;;;;;5033419;28;20163;-45
2023/03/08 10:47:36;;;;;;;34.15;24.52;;;4.80;99.90;;;;;;5053365;28;20657;-44
2023/03/08 10:50:12;;;;;;;12.27;9.43;;;4.70;99.90;;;;;;5053162;28;20187;-47
2023/03/08 10:52:39;;;;;;;15.30;12.38;;;4.90;99.90;;;;;;5053675;28;20213;-42
2023/03/08 10:55:15;;;;;;;10.70;9.07;;;4.90;99.90;;;;;;5053373;28;20167;-46
2023/03/08 10:57:47;;;;;;;11.63;8.50;;;4.90;99.90;;;;;;5053744;28;20174;-43
2023/03/08 11:00:19;;;;;;;8.02;6.60;;;5.00;99.90;;;;;;5053287;28;20205;-46
2023/03/08 11:02:46;;;;;;;10.10;7.63;;;4.90;99.90;;;;;;5053234;28;20177;-48
2023/03/08 11:05:21;;;;;;;9.20;7.75;;;5.00;99.90;;;;;;5052851;28;20221;-44
2023/03/08 11:07:52;;;;;;;10.35;7.80;;;5.10;99.90;;;;;;5053345;28;20178;-47
2023/03/08 11:10:22;;;;;;;9.68;7.82;;;5.00;99.90;;;;;;5053046;28;20677;-44
2023/03/08 11:12:59;;;;;;;8.75;7.72;;;5.00;99.90;;;;;;5053230;28;20214;-45
2023/03/08 11:15:26;;;;;;;16.77;9.98;;;5.00;99.90;;;;;;5053244;28;20169;-44
2023/03/08 11:18:02;;;;;;;18.15;12.38;;;5.00;99.90;;;;;;5053262;28;20169;-46
2023/03/08 11:20:40;;;;;;;10.43;8.77;;;5.00;99.90;;;;;;5053118;28;20197;-44
2023/03/08 11:23:44;;;;;;;15.68;11.80;;;5.10;99.90;;;;;;5053073;28;20623;-48
2023/03/08 11:26:24;;;;;;;12.00;9.57;;;5.10;99.90;;;;;;5017647;28;20226;-44
2023/03/08 11:29:01;;;;;;;14.52;10.05;;;5.10;99.90;;;;;;5030903;28;20270;-44
2023/03/08 11:31:43;;;;;;;16.70;12.63;;;5.10;99.90;;;;;;5031903;28;20261;-46
2023/03/08 11:34:25;;;;;;;13.07;9.45;;;5.10;99.90;;;;;;5033314;28;20225;-44
2023/03/08 11:36:57;;;;;;;12.50;9.80;;;5.00;99.90;;;;;;5032737;28;20159;-47
2023/03/08 11:39:33;;;;;;;18.30;11.20;;;5.10;99.90;;;;;;5032665;28;20171;-44
2023/03/08 11:42:28;;;;;;;30.58;17.55;;;5.20;99.90;;;;;;5031685;28;20206;-44
2023/03/08 11:45:00;;;;;;;24.67;15.73;;;5.30;99.90;;;;;;5040749;28;20167;-44
2023/03/08 11:48:06;;;;;;;36.97;19.10;;;5.30;99.90;;;;;;5052681;28;20663;-44
2023/03/08 11:50:44;;;;;;;18.05;12.85;;;5.40;99.90;;;;;;5031996;28;20186;-45
2023/03/08 11:53:20;;;;;;;23.58;14.80;;;5.50;99.90;;;;;;5052167;28;20259;-45
2023/03/08 11:55:58;;;;;;;18.92;13.35;;;5.50;99.90;;;;;;5051887;28;20174;-47
2023/03/08 11:58:32;;;;;;;26.52;15.40;;;5.80;99.90;;;;;;5051513;28;20175;-47
2023/03/08 12:01:03;;;;;;;18.20;13.18;;;5.90;99.90;;;;;;5051556;28;20215;-44
2023/03/08 12:03:37;;;;;;;19.50;13.45;;;5.90;99.90;;;;;;5051665;28;20171;-45
2023/03/08 12:06:15;;;;;;;21.23;15.18;;;6.00;99.90;;;;;;5051481;28;20246;-48
2023/03/08 12:08:47;;;;;;;17.08;11.75;;;6.00;99.90;;;;;;5051867;28;20557;-44
2023/03/08 12:11:21;;;;;;;13.63;10.73;;;6.20;99.90;;;;;;5051571;28;20261;-47
2023/03/08 12:13:52;;;;;;;11.52;10.27;;;6.10;99.90;;;;;;5051909;28;20171;-46
2023/03/08 12:16:41;;;;;;;15.55;11.45;;;6.10;99.90;;;;;;5051746;28;20169;-46
2023/03/08 12:19:24;;;;;;;11.65;10.02;;;6.20;99.90;;;;;;5052107;28;20162;-48
2023/03/08 12:22:16;;;;;;;12.70;10.25;;;6.20;99.90;;;;;;5051735;28;20535;-46
2023/03/08 12:25:12;;;;;;;14.00;11.38;;;6.30;99.90;;;;;;5051051;28;20224;-46
2023/03/08 12:27:53;;;;;;;14.25;11.00;;;6.20;99.90;;;;;;5051807;28;20811;-51
2023/03/08 12:30:43;;;;;;;22.30;13.43;;;6.10;99.90;;;;;;5050120;28;20521;-50
2023/03/08 12:33:12;;;;;;;15.15;11.52;;;6.20;99.90;;;;;;5051329;28;20203;-50
2023/03/08 12:35:50;;;;;;;17.05;12.25;;;6.00;99.90;;;;;;5051550;28;20190;-52
2023/03/08 12:38:18;;;;;;;16.98;12.75;;;5.90;99.90;;;;;;5051503;28;20248;-48
2023/03/08 12:40:50;;;;;;;11.48;10.02;;;6.00;99.90;;;;;;5049902;28;20646;-51
2023/03/08 12:43:18;;;;;;;12.80;10.57;;;6.00;99.90;;;;;;5051121;28;20166;-49
2023/03/08 12:45:46;;;;;;;19.85;14.57;;;5.90;99.90;;;;;;5051085;28;20171;-48
2023/03/08 12:48:20;;;;;;;15.70;12.10;;;6.10;99.90;;;;;;5051544;28;20166;-51
2023/03/08 12:51:06;;;;;;;17.02;11.45;;;6.20;99.90;;;;;;5050933;28;20232;-46
2023/03/08 12:53:37;;;;;;;18.63;14.00;;;6.50;99.90;;;;;;5050427;28;20201;-49
2023/03/08 12:56:08;;;;;;;12.90;10.80;;;6.40;99.90;;;;;;5051396;28;20167;-48
2023/03/08 12:58:46;;;;;;;16.35;11.35;;;6.50;99.90;;;;;;5052568;28;20499;-54